Time;durP1;ratioP1;P1;durP2;ratioP2;P2;SDS_P1;SDS_P2;PMS_P1;PMS_P2;Temp;Humidity;BMP_temperature;BMP_pressure;BME280_temperature;BME280_humidity;BME280_pressure;Samples;Min_cycle;Max_cycle;Signal;HPM_P1;HPM_P2
2024/03/31 00:01:17;;;;;;;9.57;2.43;;;9.10;99.90;;;;;;5072341;28;20248;-62
2024/03/31 00:03:44;;;;;;;7.22;3.00;;;9.00;99.90;;;;;;5072329;28;20173;-62
2024/03/31 00:06:11;;;;;;;10.57;4.03;;;8.80;99.90;;;;;;5072390;28;20280;-62
2024/03/31 00:08:37;;;;;;;7.50;2.75;;;8.60;99.90;;;;;;5072368;28;20177;-62
2024/03/31 00:11:06;;;;;;;9.73;3.20;;;8.80;99.90;;;;;;5072139;28;20165;-62
2024/03/31 00:13:32;;;;;;;11.88;3.42;;;8.80;99.90;;;;;;5072347;28;20414;-62
2024/03/31 00:15:58;;;;;;;16.17;5.45;;;8.80;99.90;;;;;;5072214;28;20193;-62
2024/03/31 00:18:24;;;;;;;9.65;3.65;;;8.70;99.90;;;;;;5072532;28;20205;-61
2024/03/31 00:20:58;;;;;;;9.40;1.87;;;8.70;99.90;;;;;;5072328;28;20201;-62
2024/03/31 00:23:24;;;;;;;21.90;3.33;;;8.60;99.90;;;;;;5072115;28;20490;-62
2024/03/31 00:25:59;;;;;;;16.80;3.33;;;8.90;99.90;;;;;;5071997;28;20178;-62
2024/03/31 00:28:26;;;;;;;20.00;4.20;;;8.80;99.90;;;;;;5071896;28;20690;-62
2024/03/31 00:30:59;;;;;;;9.85;2.60;;;8.90;99.90;;;;;;5071873;28;20177;-62
2024/03/31 00:33:26;;;;;;;6.93;3.00;;;8.90;99.90;;;;;;5071996;28;20283;-62
2024/03/31 00:35:56;;;;;;;6.88;3.55;;;8.90;99.90;;;;;;5071920;28;20189;-62
2024/03/31 00:38:23;;;;;;;9.10;3.33;;;9.00;99.90;;;;;;5071792;28;20238;-62
2024/03/31 00:40:49;;;;;;;4.60;2.53;;;9.10;99.90;;;;;;5071670;28;20174;-62
2024/03/31 00:43:15;;;;;;;16.23;3.80;;;8.90;99.90;;;;;;5094082;22;20236;-57
2024/03/31 00:45:41;;;;;;;9.07;2.95;;;8.80;99.90;;;;;;5071851;28;20673;-57
2024/03/31 00:48:07;;;;;;;13.25;3.70;;;8.80;99.90;;;;;;5071636;28;20639;-57
2024/03/31 00:50:36;;;;;;;17.43;3.83;;;8.70;99.90;;;;;;5071691;28;20197;-57
2024/03/31 00:53:02;;;;;;;11.40;4.60;;;8.50;99.90;;;;;;5071592;28;20209;-57
2024/03/31 00:55:28;;;;;;;17.63;3.37;;;8.60;99.90;;;;;;5071839;28;20169;-57
2024/03/31 00:57:54;;;;;;;7.03;2.63;;;8.60;99.90;;;;;;5071698;28;20201;-57
2024/03/31 01:00:19;;;;;;;8.50;5.53;;;8.70;99.90;;;;;;5071449;28;20437;-57
2024/03/31 01:02:46;;;;;;;9.30;2.60;;;8.60;99.90;;;;;;5071440;28;20189;-57
2024/03/31 01:05:12;;;;;;;12.82;2.75;;;8.50;99.90;;;;;;5070484;28;20415;-57
2024/03/31 01:07:37;;;;;;;19.38;4.15;;;8.60;99.90;;;;;;5071734;28;20177;-57
2024/03/31 01:10:04;;;;;;;10.97;4.67;;;8.70;99.90;;;;;;5071475;28;20651;-58
2024/03/31 01:12:31;;;;;;;10.65;4.45;;;8.70;99.90;;;;;;5071751;28;20197;-58
2024/03/31 01:14:57;;;;;;;5.70;3.17;;;8.70;99.90;;;;;;5075753;28;20256;-57
2024/03/31 01:17:24;;;;;;;15.35;3.95;;;8.70;99.90;;;;;;5075540;28;20172;-57
2024/03/31 01:19:50;;;;;;;10.50;3.95;;;8.70;99.90;;;;;;5075477;28;20161;-57
2024/03/31 01:22:16;;;;;;;8.97;3.07;;;8.80;99.90;;;;;;5075800;28;20277;-58
2024/03/31 01:24:42;;;;;;;11.52;3.90;;;8.70;99.90;;;;;;5075472;28;20411;-58
2024/03/31 01:27:07;;;;;;;6.30;3.93;;;8.60;99.90;;;;;;5075864;28;20234;-57
2024/03/31 01:29:33;;;;;;;8.50;4.10;;;8.60;99.90;;;;;;5075171;28;20179;-57
2024/03/31 01:31:58;;;;;;;7.80;3.53;;;8.60;99.90;;;;;;5075156;28;20298;-57
2024/03/31 01:34:25;;;;;;;9.00;3.50;;;8.60;99.90;;;;;;5075374;28;20635;-57
2024/03/31 01:36:50;;;;;;;10.23;3.50;;;8.30;99.90;;;;;;5075268;28;20165;-57
2024/03/31 01:39:18;;;;;;;7.60;3.77;;;8.30;99.90;;;;;;5075112;28;20198;-58
2024/03/31 01:41:46;;;;;;;15.55;2.83;;;8.30;99.90;;;;;;5075161;28;20169;-57
2024/03/31 01:44:11;;;;;;;10.82;3.08;;;8.10;99.90;;;;;;5075189;28;20177;-57
2024/03/31 01:46:37;;;;;;;14.13;2.43;;;8.20;99.90;;;;;;5075004;28;20169;-57
2024/03/31 01:49:03;;;;;;;13.57;3.63;;;8.10;99.90;;;;;;5074914;28;20184;-57
2024/03/31 01:51:28;;;;;;;20.10;3.73;;;8.10;99.90;;;;;;5074917;28;20204;-58
2024/03/31 01:53:54;;;;;;;11.33;3.60;;;8.10;99.90;;;;;;5074906;28;20692;-58
2024/03/31 01:56:20;;;;;;;16.97;3.80;;;8.10;99.90;;;;;;5074881;28;20184;-57
2024/03/31 01:58:45;;;;;;;10.53;4.33;;;7.90;99.90;;;;;;5074955;28;20214;-58
2024/03/31 02:01:11;;;;;;;5.80;2.73;;;7.80;99.90;;;;;;5074753;28;20507;-57
2024/03/31 02:03:37;;;;;;;25.47;3.07;;;7.60;99.90;;;;;;5074727;28;20325;-57
2024/03/31 02:06:09;;;;;;;6.17;2.97;;;7.50;99.90;;;;;;5074808;28;20181;-57
2024/03/31 02:08:35;;;;;;;9.43;3.00;;;7.40;99.90;;;;;;5074611;28;20431;-57
2024/03/31 02:11:01;;;;;;;13.23;4.03;;;7.30;99.90;;;;;;5074546;28;20187;-57
2024/03/31 02:13:27;;;;;;;8.93;2.70;;;7.30;99.90;;;;;;5074360;28;20207;-58
2024/03/31 02:15:53;;;;;;;9.37;2.53;;;7.30;99.90;;;;;;5074385;28;20503;-57
2024/03/31 02:18:18;;;;;;;14.32;3.85;;;7.30;99.90;;;;;;5073208;28;20413;-57
2024/03/31 02:20:44;;;;;;;7.73;1.80;;;7.20;99.90;;;;;;5074397;28;20167;-57
2024/03/31 02:23:10;;;;;;;9.00;2.37;;;7.20;99.90;;;;;;5074254;28;20571;-58
2024/03/31 02:25:36;;;;;;;12.20;2.87;;;7.20;99.90;;;;;;5073028;28;20727;-57
2024/03/31 02:28:02;;;;;;;10.13;3.73;;;7.20;99.90;;;;;;5074484;28;20706;-54
2024/03/31 02:30:28;;;;;;;6.57;1.90;;;7.10;99.90;;;;;;5074193;28;20178;-56
2024/03/31 02:32:53;;;;;;;12.60;3.60;;;7.10;99.90;;;;;;5074330;28;20720;-55
2024/03/31 02:35:19;;;;;;;6.53;3.27;;;7.10;99.90;;;;;;5074379;28;20163;-57
2024/03/31 02:37:46;;;;;;;8.20;2.90;;;7.20;99.90;;;;;;5074227;28;20182;-59
2024/03/31 02:40:12;;;;;;;8.02;2.22;;;7.20;99.90;;;;;;5073958;28;20167;-57
2024/03/31 02:42:37;;;;;;;10.83;3.10;;;7.10;99.90;;;;;;5073918;28;20223;-59
2024/03/31 02:45:03;;;;;;;5.77;2.00;;;7.60;99.90;;;;;;5074258;28;20264;-57
2024/03/31 02:47:29;;;;;;;14.87;5.60;;;7.10;99.90;;;;;;5073905;28;20172;-57
2024/03/31 02:49:55;;;;;;;15.43;3.13;;;7.10;99.90;;;;;;5073785;28;20443;-57
2024/03/31 02:52:20;;;;;;;7.83;2.67;;;7.00;99.90;;;;;;5073651;28;20863;-57
2024/03/31 02:54:46;;;;;;;14.60;2.97;;;7.00;99.90;;;;;;5073860;28;20163;-57
2024/03/31 02:57:12;;;;;;;5.60;3.37;;;7.10;99.90;;;;;;5073814;28;20658;-58
2024/03/31 02:59:37;;;;;;;10.63;2.10;;;7.00;99.90;;;;;;5073496;28;20226;-57
2024/03/31 03:02:03;;;;;;;9.47;3.33;;;7.10;99.90;;;;;;5073878;28;20241;-58
2024/03/31 03:04:29;;;;;;;13.10;3.97;;;7.10;99.90;;;;;;5073625;28;20169;-57
2024/03/31 03:06:55;;;;;;;9.38;2.97;;;7.10;99.90;;;;;;5073519;28;20855;-58
2024/03/31 03:09:22;;;;;;;3.90;1.70;;;7.20;99.90;;;;;;5071985;28;20207;-58
2024/03/31 03:11:47;;;;;;;15.32;3.60;;;7.20;99.90;;;;;;5073332;28;20441;-57
2024/03/31 03:14:13;;;;;;;3.23;2.60;;;7.00;99.90;;;;;;5073482;28;20179;-57
2024/03/31 03:16:39;;;;;;;7.10;2.60;;;6.90;99.90;;;;;;5073413;28;20165;-57
2024/03/31 03:19:05;;;;;;;9.32;2.30;;;6.90;99.90;;;;;;5073168;28;20181;-58
2024/03/31 03:21:30;;;;;;;10.53;2.00;;;6.90;99.90;;;;;;5073274;28;20204;-57
2024/03/31 03:23:56;;;;;;;6.67;2.93;;;6.90;99.90;;;;;;5073402;28;20206;-57
2024/03/31 03:26:22;;;;;;;3.63;2.50;;;6.90;99.90;;;;;;5073497;28;20188;-57
2024/03/31 03:28:47;;;;;;;4.47;2.60;;;6.90;99.90;;;;;;5073025;28;20667;-57
2024/03/31 03:31:13;;;;;;;3.17;1.77;;;7.00;99.90;;;;;;5072918;28;20183;-57
2024/03/31 03:33:39;;;;;;;4.87;2.30;;;7.00;99.90;;;;;;5073034;28;20192;-57
2024/03/31 03:36:05;;;;;;;8.80;1.87;;;7.10;99.90;;;;;;5072479;28;20172;-57
2024/03/31 03:38:31;;;;;;;8.32;2.40;;;7.20;99.90;;;;;;5072945;28;20260;-58
2024/03/31 03:40:58;;;;;;;3.47;1.87;;;7.20;99.90;;;;;;5072836;28;20251;-57
2024/03/31 03:43:25;;;;;;;2.60;1.70;;;7.20;99.90;;;;;;5072634;28;20493;-57
2024/03/31 03:45:51;;;;;;;9.60;2.70;;;7.00;99.90;;;;;;5072908;28;20610;-57
2024/03/31 03:48:17;;;;;;;5.30;2.57;;;6.90;99.90;;;;;;5073176;28;20168;-57
2024/03/31 03:50:43;;;;;;;4.50;1.70;;;6.90;99.90;;;;;;5071187;28;20487;-57
2024/03/31 03:53:08;;;;;;;4.00;1.60;;;7.00;99.90;;;;;;5072569;28;20211;-57
2024/03/31 03:55:34;;;;;;;10.93;1.90;;;7.10;99.90;;;;;;5072785;28;20176;-57
2024/03/31 03:57:59;;;;;;;7.50;2.30;;;7.10;99.90;;;;;;5072589;28;20190;-57
2024/03/31 04:00:25;;;;;;;11.30;3.57;;;7.00;99.90;;;;;;5072576;28;20170;-55
2024/03/31 04:02:51;;;;;;;4.90;1.57;;;6.90;99.90;;;;;;5072741;28;20504;-57
2024/03/31 04:05:16;;;;;;;12.40;2.00;;;6.90;99.90;;;;;;5072470;28;20255;-57
2024/03/31 04:07:42;;;;;;;6.03;1.73;;;6.60;99.90;;;;;;5072402;28;20592;-57
2024/03/31 04:10:07;;;;;;;3.83;1.53;;;7.00;99.90;;;;;;5072375;28;20558;-57
2024/03/31 04:12:33;;;;;;;5.17;1.90;;;7.00;99.90;;;;;;5072270;28;20265;-57
2024/03/31 04:15:00;;;;;;;10.87;2.73;;;6.90;99.90;;;;;;5072468;28;20287;-57
2024/03/31 04:17:26;;;;;;;5.85;3.15;;;6.80;99.90;;;;;;5072246;28;20178;-57
2024/03/31 04:19:52;;;;;;;2.07;1.87;;;6.70;99.90;;;;;;5071981;28;20254;-57
2024/03/31 04:22:17;;;;;;;8.17;3.17;;;6.80;99.90;;;;;;5072409;28;20197;-57
2024/03/31 04:24:43;;;;;;;6.03;1.97;;;7.10;99.90;;;;;;5072271;28;20183;-57
2024/03/31 04:27:09;;;;;;;7.93;1.77;;;7.20;99.90;;;;;;5072298;28;20211;-57
2024/03/31 04:29:34;;;;;;;4.93;1.50;;;7.10;99.90;;;;;;5071828;28;20268;-59
2024/03/31 04:32:00;;;;;;;3.90;1.90;;;7.30;99.90;;;;;;5071801;28;20302;-59
2024/03/31 04:34:28;;;;;;;7.40;1.43;;;7.10;99.90;;;;;;5072455;28;20626;-59
2024/03/31 04:36:55;;;;;;;12.30;3.22;;;7.30;99.90;;;;;;5071940;28;20176;-58
2024/03/31 04:39:21;;;;;;;3.35;2.08;;;7.20;99.90;;;;;;5071617;28;20208;-59
2024/03/31 04:41:47;;;;;;;8.30;2.17;;;6.80;99.90;;;;;;5071894;28;20204;-57
2024/03/31 04:44:13;;;;;;;7.30;2.80;;;6.60;99.90;;;;;;5072055;28;20179;-58
2024/03/31 04:46:39;;;;;;;5.13;1.50;;;6.90;99.90;;;;;;5071875;28;20189;-57
2024/03/31 04:49:07;;;;;;;6.33;2.67;;;6.90;99.90;;;;;;5071466;28;20185;-58
2024/03/31 04:51:33;;;;;;;12.30;2.25;;;6.70;99.90;;;;;;5071705;28;20201;-58
2024/03/31 04:53:59;;;;;;;4.87;2.30;;;6.90;99.90;;;;;;5072001;28;20666;-57
2024/03/31 04:56:24;;;;;;;10.73;2.80;;;7.10;99.90;;;;;;5071781;28;20410;-57
2024/03/31 04:58:50;;;;;;;12.93;2.80;;;7.20;99.90;;;;;;5071637;28;20201;-58
2024/03/31 05:01:16;;;;;;;7.73;1.47;;;7.30;99.90;;;;;;5071621;28;20225;-58
2024/03/31 05:03:41;;;;;;;5.67;1.60;;;7.30;99.90;;;;;;5071570;28;20219;-57
2024/03/31 05:06:07;;;;;;;9.23;3.77;;;7.30;99.90;;;;;;5071697;28;20705;-58
2024/03/31 05:08:33;;;;;;;5.83;1.47;;;7.20;99.90;;;;;;5071741;28;20179;-59
2024/03/31 05:11:00;;;;;;;6.93;1.40;;;7.10;99.90;;;;;;5071696;28;20176;-59
2024/03/31 05:13:29;;;;;;;8.38;1.98;;;7.60;99.90;;;;;;5071391;28;21028;-59
2024/03/31 05:15:58;;;;;;;6.53;2.83;;;7.30;99.90;;;;;;5071559;28;20168;-59
2024/03/31 05:18:23;;;;;;;2.92;1.60;;;7.30;99.90;;;;;;5071507;28;20187;-59
2024/03/31 05:21:00;;;;;;;3.17;1.50;;;7.30;99.90;;;;;;5071636;28;20550;-58
2024/03/31 05:23:26;;;;;;;6.22;2.03;;;7.30;99.90;;;;;;5072225;28;20195;-59
2024/03/31 05:25:52;;;;;;;9.17;3.03;;;7.30;99.90;;;;;;5071617;28;20163;-59
2024/03/31 05:28:18;;;;;;;4.57;2.07;;;7.00;99.90;;;;;;5071602;28;20409;-59
2024/03/31 05:30:46;;;;;;;3.35;3.00;;;7.10;99.90;;;;;;5071330;28;20175;-59
2024/03/31 05:33:12;;;;;;;2.78;1.67;;;7.20;99.90;;;;;;5071425;28;20263;-59
2024/03/31 05:35:40;;;;;;;5.80;1.83;;;7.30;99.90;;;;;;5071577;28;20189;-59
2024/03/31 05:38:09;;;;;;;6.10;2.13;;;7.30;99.90;;;;;;5071487;28;20181;-59
2024/03/31 05:40:42;;;;;;;5.75;1.65;;;7.20;99.90;;;;;;5071160;28;20249;-59
2024/03/31 05:43:08;;;;;;;8.63;1.67;;;6.90;99.90;;;;;;5070533;28;20215;-59
2024/03/31 05:45:35;;;;;;;4.63;1.23;;;7.40;99.90;;;;;;5070286;28;20183;-61
2024/03/31 05:48:09;;;;;;;5.63;2.33;;;7.40;99.90;;;;;;5070285;28;20414;-60
2024/03/31 05:50:35;;;;;;;3.53;1.40;;;7.40;99.90;;;;;;5070111;28;20183;-60
2024/03/31 05:53:01;;;;;;;10.52;1.83;;;7.60;99.90;;;;;;5070056;28;20287;-60
2024/03/31 05:55:30;;;;;;;12.82;2.40;;;7.60;99.90;;;;;;5070218;28;20177;-60
2024/03/31 05:57:56;;;;;;;3.00;1.65;;;7.80;99.90;;;;;;5070051;28;20165;-60
2024/03/31 06:00:22;;;;;;;4.87;2.73;;;7.90;99.90;;;;;;5072799;28;20184;-60
2024/03/31 06:02:49;;;;;;;1.83;1.10;;;8.00;99.90;;;;;;5073728;28;20434;-60
2024/03/31 06:05:15;;;;;;;8.27;2.40;;;8.00;99.90;;;;;;5073566;28;20178;-60
2024/03/31 06:07:40;;;;;;;5.03;1.30;;;8.10;99.90;;;;;;5073474;28;20246;-60
2024/03/31 06:10:06;;;;;;;8.23;1.60;;;8.20;99.90;;;;;;5073195;28;20494;-60
2024/03/31 06:12:32;;;;;;;1.90;1.35;;;8.30;99.90;;;;;;5073242;28;20208;-60
2024/03/31 06:14:58;;;;;;;7.33;1.57;;;8.40;99.90;;;;;;5073646;28;20169;-60
2024/03/31 06:17:23;;;;;;;7.37;1.47;;;8.60;99.90;;;;;;5072043;28;20180;-60
2024/03/31 06:19:49;;;;;;;5.90;1.70;;;8.70;99.90;;;;;;5071830;28;20718;-60
2024/03/31 06:22:15;;;;;;;5.70;3.00;;;9.00;99.90;;;;;;5073679;28;20197;-60
2024/03/31 06:24:41;;;;;;;7.00;3.20;;;9.10;99.90;;;;;;5073306;28;20178;-60
2024/03/31 06:27:07;;;;;;;4.28;2.53;;;9.30;99.90;;;;;;5073128;28;20188;-60
2024/03/31 06:29:33;;;;;;;5.33;3.00;;;9.30;99.90;;;;;;5073039;28;20268;-60
2024/03/31 06:31:58;;;;;;;8.93;3.87;;;10.00;99.90;;;;;;5072976;28;20819;-60
2024/03/31 06:34:24;;;;;;;4.07;2.50;;;9.80;99.90;;;;;;5073105;28;20412;-60
2024/03/31 06:36:49;;;;;;;9.00;2.83;;;10.30;99.90;;;;;;5073048;28;20162;-60
2024/03/31 06:39:15;;;;;;;6.83;4.30;;;;;;;;;;5073095;28;20174;-60
2024/03/31 06:41:41;;;;;;;11.60;5.30;;;;;;;;;;5032956;28;1134898;-60
2024/03/31 06:44:07;;;;;;;7.13;3.93;;;11.20;99.90;;;;;;5111328;22;20605;-62
2024/03/31 06:46:33;;;;;;;8.60;4.43;;;;;;;;;;5074141;28;21016;-61
2024/03/31 06:48:59;;;;;;;7.70;3.20;;;12.50;99.90;;;;;;5073952;28;20256;-61
2024/03/31 06:51:24;;;;;;;8.87;3.00;;;12.60;99.90;;;;;;5074555;28;20407;-63
2024/03/31 06:53:50;;;;;;;4.37;2.70;;;12.90;99.10;;;;;;5074234;28;20215;-61
2024/03/31 06:56:17;;;;;;;4.77;2.30;;;12.80;99.60;;;;;;5074050;28;20170;-60
2024/03/31 06:58:43;;;;;;;5.33;2.20;;;12.80;98.80;;;;;;5073745;28;20491;-60
2024/03/31 07:01:08;;;;;;;5.43;2.40;;;12.80;99.90;;;;;;5073553;28;20504;-60
2024/03/31 07:03:34;;;;;;;7.40;3.27;;;12.90;98.90;;;;;;5073786;28;20190;-60
2024/03/31 07:06:00;;;;;;;7.80;2.40;;;12.70;99.50;;;;;;5074042;28;20208;-60
2024/03/31 07:08:25;;;;;;;5.80;2.40;;;12.60;99.90;;;;;;5073705;28;20169;-60
2024/03/31 07:10:51;;;;;;;6.90;2.10;;;12.30;99.90;;;;;;5072826;28;20173;-60
2024/03/31 07:13:16;;;;;;;5.63;2.07;;;12.40;99.90;;;;;;5073533;28;20197;-60
2024/03/31 07:15:42;;;;;;;4.77;2.70;;;12.20;99.90;;;;;;5073722;28;20166;-60
2024/03/31 07:18:09;;;;;;;2.60;1.87;;;12.30;99.90;;;;;;5073343;28;20534;-61
2024/03/31 07:20:36;;;;;;;3.67;1.47;;;12.30;99.90;;;;;;5073216;28;20165;-61
2024/03/31 07:23:05;;;;;;;3.63;1.90;;;12.10;99.90;;;;;;5073425;28;20431;-60
2024/03/31 07:25:37;;;;;;;12.60;2.80;;;11.90;99.90;;;;;;5073397;28;20408;-60
2024/03/31 07:28:03;;;;;;;4.90;1.40;;;11.50;99.90;;;;;;5073546;28;20462;-60
2024/03/31 07:30:29;;;;;;;5.07;1.73;;;11.80;99.90;;;;;;5072974;28;20416;-60
2024/03/31 07:32:54;;;;;;;5.47;1.50;;;11.60;99.90;;;;;;5073278;28;20447;-61
2024/03/31 07:35:21;;;;;;;4.20;1.20;;;;;;;;;;5073287;28;20169;-60
2024/03/31 07:37:46;;;;;;;2.97;0.80;;;11.30;99.90;;;;;;5073055;28;20166;-61
2024/03/31 07:40:13;;;;;;;1.97;1.23;;;11.20;99.90;;;;;;5072844;28;20454;-60
2024/03/31 07:42:38;;;;;;;3.37;1.10;;;11.40;99.90;;;;;;5072712;28;20454;-61
2024/03/31 07:45:04;;;;;;;2.50;1.03;;;11.20;99.90;;;;;;5072864;28;20886;-61
2024/03/31 07:47:30;;;;;;;0.90;0.67;;;11.10;99.90;;;;;;5072877;28;20166;-61
2024/03/31 07:49:56;;;;;;;3.93;0.70;;;11.50;99.90;;;;;;5072577;28;20418;-61
2024/03/31 07:52:22;;;;;;;3.03;1.67;;;11.60;99.90;;;;;;5072730;28;20535;-61
2024/03/31 07:54:47;;;;;;;5.83;2.27;;;12.10;99.90;;;;;;5073020;28;20158;-61
2024/03/31 07:57:15;;;;;;;1.87;1.63;;;12.50;99.90;;;;;;5072823;28;20662;-61
2024/03/31 07:59:41;;;;;;;1.53;1.13;;;;;;;;;;5072401;28;20189;-61
2024/03/31 08:02:07;;;;;;;3.80;0.73;;;15.10;99.90;;;;;;5072658;28;20400;-61
2024/03/31 08:04:32;;;;;;;1.77;1.10;;;15.50;99.90;;;;;;5073370;28;20920;-61
2024/03/31 08:06:58;;;;;;;3.67;1.50;;;;;;;;;;5072451;28;20407;-61
2024/03/31 08:09:24;;;;;;;2.90;1.10;;;16.20;99.90;;;;;;5072026;28;20176;-61
2024/03/31 08:11:50;;;;;;;3.60;1.33;;;15.70;99.90;;;;;;5072289;28;20462;-62
2024/03/31 08:14:15;;;;;;;1.87;1.20;;;15.70;99.90;;;;;;5072213;28;20188;-61
2024/03/31 08:16:41;;;;;;;1.13;0.77;;;16.70;99.90;;;;;;5072309;28;20635;-62
2024/03/31 08:19:06;;;;;;;6.10;0.77;;;17.00;99.90;;;;;;5072389;28;20631;-61
2024/03/31 08:21:32;;;;;;;3.90;1.10;;;18.10;99.90;;;;;;5072142;28;20176;-61
2024/03/31 08:23:58;;;;;;;11.33;0.87;;;19.60;99.90;;;;;;5072169;28;20581;-61
2024/03/31 08:26:24;;;;;;;3.90;0.70;;;20.80;94.50;;;;;;5072161;28;20179;-61
2024/03/31 08:28:50;;;;;;;1.90;0.67;;;21.60;96.00;;;;;;5071990;28;20244;-61
2024/03/31 08:31:15;;;;;;;0.93;0.87;;;21.90;62.20;;;;;;5071956;28;20489;-61
2024/03/31 08:33:41;;;;;;;2.33;1.60;;;21.10;96.30;;;;;;5071882;28;20236;-61
2024/03/31 08:36:07;;;;;;;9.43;1.13;;;20.60;64.40;;;;;;5072003;28;20165;-61
2024/03/31 08:38:33;;;;;;;2.43;1.10;;;;;;;;;;5071901;28;20256;-61
2024/03/31 08:41:07;;;;;;;1.20;0.57;;;21.40;60.70;;;;;;5071642;28;20650;-61
2024/03/31 08:43:45;;;;;;;3.37;0.87;;;21.30;56.40;;;;;;5071587;28;20439;-61
2024/03/31 08:46:12;;;;;;;4.40;1.77;;;21.10;58.10;;;;;;5071924;28;20512;-61
2024/03/31 08:48:38;;;;;;;2.13;0.93;;;21.10;59.20;;;;;;5071817;28;20397;-61
2024/03/31 08:51:05;;;;;;;0.90;0.57;;;20.40;65.40;;;;;;5072001;28;20416;-60
2024/03/31 08:53:32;;;;;;;1.27;0.97;;;19.20;59.40;;;;;;5072202;28;20453;-60
2024/03/31 08:55:58;;;;;;;2.20;1.43;;;18.00;96.20;;;;;;5072072;28;20408;-60
2024/03/31 08:58:23;;;;;;;0.63;0.60;;;18.10;62.50;;;;;;5071819;28;20832;-60
2024/03/31 09:00:50;;;;;;;1.07;1.00;;;17.90;95.30;;;;;;5071721;28;20486;-60
2024/03/31 09:03:16;;;;;;;5.80;1.60;;;17.30;90.80;;;;;;5071800;28;20199;-60
2024/03/31 09:05:42;;;;;;;1.50;1.40;;;17.20;94.20;;;;;;5071743;28;20415;-60
2024/03/31 09:08:08;;;;;;;3.47;1.10;;;17.00;93.40;;;;;;5071649;28;20406;-60
2024/03/31 09:10:35;;;;;;;1.17;0.80;;;17.00;94.30;;;;;;5071361;28;20413;-60
2024/03/31 09:13:08;;;;;;;1.50;0.80;;;16.80;99.50;;;;;;5071548;28;20203;-60
2024/03/31 09:15:35;;;;;;;3.80;0.80;;;17.30;79.20;;;;;;5071941;28;20490;-61
2024/03/31 09:18:01;;;;;;;0.60;0.50;;;16.90;94.10;;;;;;5071529;28;20406;-61
2024/03/31 09:20:27;;;;;;;0.73;0.50;;;16.70;98.40;;;;;;5071182;28;20920;-61
2024/03/31 09:22:54;;;;;;;3.90;0.60;;;16.50;96.60;;;;;;5071382;28;20432;-61
2024/03/31 09:25:20;;;;;;;2.53;0.60;;;16.70;66.60;;;;;;5072116;28;20503;-60
2024/03/31 09:27:47;;;;;;;0.67;0.67;;;16.30;68.50;;;;;;5071480;28;20404;-61
2024/03/31 09:30:13;;;;;;;0.60;0.50;;;16.10;71.50;;;;;;5071206;28;20415;-60
2024/03/31 09:32:38;;;;;;;1.60;1.23;;;15.90;65.90;;;;;;5071451;28;20874;-61
2024/03/31 09:35:04;;;;;;;1.33;0.70;;;15.90;67.20;;;;;;5074328;28;20502;-61
2024/03/31 09:37:31;;;;;;;0.93;0.70;;;16.00;69.00;;;;;;5075349;28;20773;-61
2024/03/31 09:39:56;;;;;;;5.50;1.67;;;16.10;69.30;;;;;;5074980;28;20407;-60
2024/03/31 09:42:25;;;;;;;0.77;0.60;;;16.10;67.20;;;;;;5075020;28;20428;-61
2024/03/31 09:44:51;;;;;;;0.70;0.60;;;16.10;66.20;;;;;;5075292;28;20198;-61
2024/03/31 09:47:25;;;;;;;2.67;0.90;;;16.10;65.00;;;;;;5075091;28;20408;-61
2024/03/31 09:50:01;;;;;;;6.33;0.90;;;16.00;63.40;;;;;;5074967;28;20403;-61
2024/03/31 09:52:32;;;;;;;2.43;1.10;;;15.70;96.80;;;;;;5075000;28;20510;-61
2024/03/31 09:55:04;;;;;;;0.63;0.63;;;16.40;71.50;;;;;;5075036;28;20406;-61
2024/03/31 09:57:36;;;;;;;1.87;1.03;;;15.70;64.60;;;;;;5074944;28;20395;-60
2024/03/31 10:00:03;;;;;;;2.30;2.20;;;15.70;64.20;;;;;;5075081;28;20399;-61
2024/03/31 10:02:29;;;;;;;0.53;0.53;;;16.20;98.10;;;;;;5074862;28;20429;-61
2024/03/31 10:05:06;;;;;;;1.90;0.80;;;16.90;97.50;;;;;;5075208;28;20485;-61
2024/03/31 10:07:33;;;;;;;2.80;0.80;;;17.10;96.10;;;;;;5074942;28;20170;-61
2024/03/31 10:10:02;;;;;;;1.87;0.73;;;16.90;64.40;;;;;;5074666;28;20403;-61
2024/03/31 10:12:30;;;;;;;2.10;0.60;;;17.20;65.00;;;;;;5074898;28;20456;-61
2024/03/31 10:14:58;;;;;;;0.70;0.70;;;17.50;61.40;;;;;;5074863;28;20407;-61
2024/03/31 10:17:24;;;;;;;1.23;0.70;;;17.50;59.70;;;;;;5074933;28;20470;-60
2024/03/31 10:19:51;;;;;;;2.80;0.70;;;17.80;61.00;;;;;;5074912;28;20825;-60
2024/03/31 10:22:17;;;;;;;3.87;0.90;;;17.90;88.00;;;;;;5074840;28;20410;-60
2024/03/31 10:24:44;;;;;;;0.60;0.60;;;18.00;58.00;;;;;;5074740;28;20421;-60
2024/03/31 10:27:09;;;;;;;3.90;0.90;;;18.10;93.20;;;;;;5074784;28;20411;-60
2024/03/31 10:29:35;;;;;;;1.07;0.80;;;18.30;58.70;;;;;;5074401;28;20462;-60
2024/03/31 10:32:01;;;;;;;1.67;0.77;;;18.90;75.50;;;;;;5074792;28;20589;-60
2024/03/31 10:34:27;;;;;;;0.83;0.60;;;18.90;57.20;;;;;;5075058;28;20186;-60
2024/03/31 10:36:54;;;;;;;1.10;0.70;;;18.70;56.00;;;;;;5074440;28;20648;-60
2024/03/31 10:39:21;;;;;;;4.73;0.73;;;18.10;56.70;;;;;;5074041;28;20997;-60
2024/03/31 10:41:48;;;;;;;0.73;0.67;;;17.40;56.70;;;;;;5074263;28;20495;-60
2024/03/31 10:44:15;;;;;;;2.93;1.00;;;16.80;59.60;;;;;;5074045;28;20440;-60
2024/03/31 10:46:42;;;;;;;0.77;0.50;;;16.60;61.30;;;;;;5073683;28;20409;-61
2024/03/31 10:49:09;;;;;;;1.33;0.77;;;16.20;97.90;;;;;;5074085;28;20415;-61
2024/03/31 10:51:39;;;;;;;2.50;0.70;;;16.40;68.00;;;;;;5073969;28;20403;-61
2024/03/31 10:54:34;;;;;;;0.73;0.60;;;16.40;64.60;;;;;;5074105;28;20422;-60
2024/03/31 10:57:05;;;;;;;1.53;0.43;;;16.20;95.30;;;;;;5074034;28;20389;-61
2024/03/31 10:59:31;;;;;;;1.83;0.60;;;16.50;72.00;;;;;;5073778;28;20483;-60
2024/03/31 11:01:58;;;;;;;0.60;0.50;;;16.20;59.20;;;;;;5073779;28;20423;-60
2024/03/31 11:04:25;;;;;;;2.00;0.70;;;16.10;65.10;;;;;;5073768;28;20783;-60
2024/03/31 11:06:55;;;;;;;1.50;1.10;;;15.80;65.80;;;;;;5073710;28;20929;-60
2024/03/31 11:09:21;;;;;;;6.33;1.07;;;15.90;65.00;;;;;;5073225;28;20415;-60
2024/03/31 11:11:47;;;;;;;0.50;0.50;;;16.10;62.50;;;;;;5073889;28;20489;-61
2024/03/31 11:14:12;;;;;;;4.37;0.97;;;16.40;71.00;;;;;;5073806;28;20473;-61
2024/03/31 11:16:39;;;;;;;1.03;1.03;;;16.60;70.40;;;;;;5073654;28;20443;-61
2024/03/31 11:19:06;;;;;;;1.20;0.80;;;16.70;60.60;;;;;;5073928;28;20166;-60
2024/03/31 11:21:33;;;;;;;2.50;1.17;;;16.60;60.20;;;;;;5073304;28;20408;-61
2024/03/31 11:24:03;;;;;;;2.77;0.50;;;16.20;64.80;;;;;;5073130;28;20434;-62
2024/03/31 11:26:29;;;;;;;1.60;0.80;;;16.00;65.80;;;;;;5073367;28;20398;-62
2024/03/31 11:28:57;;;;;;;2.50;0.50;;;16.20;62.30;;;;;;5073176;28;20768;-61
2024/03/31 11:31:22;;;;;;;1.77;1.23;;;16.40;65.80;;;;;;5073028;28;20397;-60
2024/03/31 11:33:48;;;;;;;1.57;0.50;;;16.40;61.90;;;;;;5072929;28;20451;-59
2024/03/31 11:36:16;;;;;;;1.60;0.80;;;16.40;64.50;;;;;;5072963;28;20223;-59
2024/03/31 11:38:42;;;;;;;2.80;0.70;;;16.80;66.20;;;;;;5073051;28;20433;-59
2024/03/31 11:41:08;;;;;;;1.77;0.70;;;17.10;59.70;;;;;;5072859;28;20488;-60
2024/03/31 11:43:34;;;;;;;1.10;0.70;;;17.10;57.90;;;;;;5072780;28;20452;-59
2024/03/31 11:46:01;;;;;;;1.90;0.50;;;16.80;58.60;;;;;;5072877;28;20413;-59
2024/03/31 11:48:30;;;;;;;0.50;0.50;;;16.60;58.00;;;;;;5072675;28;20460;-59
2024/03/31 11:50:56;;;;;;;1.20;0.57;;;16.40;58.10;;;;;;5072437;28;20508;-59
2024/03/31 11:53:21;;;;;;;0.40;0.40;;;16.40;58.40;;;;;;5072414;28;20526;-60
2024/03/31 11:55:48;;;;;;;0.43;0.43;;;16.50;58.70;;;;;;5072645;28;20467;-60
2024/03/31 11:58:14;;;;;;;0.80;0.70;;;16.80;57.90;;;;;;5072288;28;20205;-60
2024/03/31 12:00:51;;;;;;;1.50;0.50;;;17.00;59.00;;;;;;5072447;28;20433;-60
2024/03/31 12:03:17;;;;;;;0.83;0.63;;;16.60;58.10;;;;;;5072400;28;20893;-60
2024/03/31 12:05:47;;;;;;;0.70;0.70;;;16.70;57.90;;;;;;5072517;28;20405;-61
2024/03/31 12:08:14;;;;;;;1.60;0.73;;;17.10;59.90;;;;;;5072472;28;20173;-61
2024/03/31 12:10:40;;;;;;;0.50;0.47;;;17.50;58.80;;;;;;5072313;28;20416;-60
2024/03/31 12:13:06;;;;;;;1.33;0.70;;;17.30;57.80;;;;;;5072120;28;20455;-61
2024/03/31 12:15:32;;;;;;;1.70;0.70;;;17.30;56.90;;;;;;5072330;28;20196;-60
2024/03/31 12:17:59;;;;;;;1.43;0.73;;;17.40;58.70;;;;;;5072160;28;20204;-60
2024/03/31 12:20:24;;;;;;;1.57;1.10;;;17.60;57.80;;;;;;5072046;28;20909;-62
2024/03/31 12:22:51;;;;;;;2.43;0.70;;;17.40;56.70;;;;;;5072460;28;20499;-61
2024/03/31 12:25:17;;;;;;;0.87;0.87;;;17.30;57.40;;;;;;5072822;28;20184;-61
2024/03/31 12:27:43;;;;;;;5.30;0.63;;;17.10;57.20;;;;;;5072473;28;20415;-61
2024/03/31 12:30:09;;;;;;;2.20;0.73;;;17.00;57.60;;;;;;5072154;28;20408;-61
2024/03/31 12:32:35;;;;;;;0.77;0.77;;;17.00;58.70;;;;;;5071952;28;20463;-61
2024/03/31 12:35:03;;;;;;;1.00;0.90;;;17.20;61.50;;;;;;5072437;28;20500;-61
2024/03/31 12:37:29;;;;;;;3.27;0.80;;;17.40;58.50;;;;;;5072166;28;20414;-61
2024/03/31 12:39:55;;;;;;;0.87;0.77;;;17.40;57.20;;;;;;5071713;28;20402;-61
2024/03/31 12:42:22;;;;;;;2.00;0.83;;;17.40;58.10;;;;;;5071888;28;20304;-61
2024/03/31 12:44:56;;;;;;;1.33;0.60;;;17.30;58.10;;;;;;5092769;22;20523;-63
2024/03/31 12:47:22;;;;;;;1.13;1.07;;;17.20;57.50;;;;;;5071830;28;20404;-64
2024/03/31 12:49:47;;;;;;;2.30;1.17;;;17.20;57.10;;;;;;5071654;28;20901;-64